createdAt,value
2019-01-21T00:00:58.265Z,17.90
2019-01-21T00:03:27.369Z,19.13
2019-01-21T00:05:56.476Z,20.43
2019-01-21T00:08:25.560Z,22.67
2019-01-21T00:10:54.674Z,21.67
2019-01-21T00:13:23.808Z,17.77
2019-01-21T00:15:52.960Z,21.30
2019-01-21T00:18:22.036Z,20.90
2019-01-21T00:20:51.139Z,21.07
2019-01-21T00:23:20.264Z,25.27
2019-01-21T00:25:49.337Z,21.10
2019-01-21T00:28:20.068Z,22.87
2019-01-21T00:30:49.215Z,20.67
2019-01-21T00:33:18.300Z,23.93
2019-01-21T00:35:47.389Z,19.37
2019-01-21T00:38:16.497Z,22.67
2019-01-21T00:40:45.585Z,19.47
2019-01-21T00:43:14.701Z,21.73
2019-01-21T00:45:43.792Z,21.30
2019-01-21T00:48:12.932Z,25.90
2019-01-21T00:50:42.033Z,22.70
2019-01-21T00:53:11.136Z,23.93
2019-01-21T00:55:40.261Z,22.53
2019-01-21T00:58:09.360Z,21.30
2019-01-21T01:00:38.458Z,22.57
2019-01-21T01:03:07.869Z,20.87
2019-01-21T01:05:36.959Z,18.93
2019-01-21T01:08:06.236Z,20.50
2019-01-21T01:10:35.328Z,21.17
2019-01-21T01:13:04.444Z,20.57
2019-01-21T01:15:33.528Z,25.27
2019-01-21T01:18:02.645Z,22.30
2019-01-21T01:20:31.731Z,22.13
2019-01-21T01:23:00.858Z,24.30
2019-01-21T01:25:29.948Z,25.10
2019-01-21T01:27:59.122Z,22.80
2019-01-21T01:30:28.164Z,21.37
2019-01-21T01:32:57.264Z,23.33
2019-01-21T01:35:26.377Z,20.93
2019-01-21T01:37:55.468Z,20.90
2019-01-21T01:40:24.573Z,21.20
2019-01-21T01:42:53.660Z,20.50
2019-01-21T01:45:24.709Z,21.07
2019-01-21T01:48:03.773Z,19.77
2019-01-21T01:50:32.997Z,21.30
2019-01-21T01:53:02.109Z,22.90
2019-01-21T01:55:31.980Z,19.80
2019-01-21T01:58:02.591Z,19.93
2019-01-21T02:00:31.797Z,22.63
2019-01-21T02:03:00.988Z,24.90
2019-01-21T02:05:30.093Z,24.70
2019-01-21T02:07:59.382Z,22.43
2019-01-21T02:10:28.770Z,21.23
2019-01-21T02:12:57.861Z,23.40
2019-01-21T02:15:26.965Z,22.70
2019-01-21T02:17:56.043Z,21.57
2019-01-21T02:20:25.152Z,21.57
2019-01-21T02:23:01.693Z,21.97
2019-01-21T02:25:50.452Z,20.93
2019-01-21T02:28:49.708Z,19.53
2019-01-21T02:31:48.329Z,20.30
2019-01-21T02:35:04.692Z,22.20
2019-01-21T02:38:14.710Z,20.63
2019-01-21T02:41:24.626Z,19.93
2019-01-21T02:44:24.357Z,18.50
2019-01-21T02:47:18.697Z,24.13
2019-01-21T02:50:06.037Z,22.80
2019-01-21T02:52:50.236Z,17.70
2019-01-21T02:56:00.106Z,22.13
2019-01-21T02:58:40.917Z,19.90
2019-01-21T03:01:37.588Z,21.70
2019-01-21T03:04:34.643Z,19.13
2019-01-21T03:07:23.339Z,18.40
2019-01-21T03:10:13.992Z,23.03
2019-01-21T03:13:01.279Z,17.43
2019-01-21T03:16:00.313Z,20.60
2019-01-21T03:19:37.590Z,21.37
2019-01-21T03:22:31.747Z,16.47
2019-01-21T03:25:33.228Z,21.23
2019-01-21T03:28:39.067Z,19.63
2019-01-21T03:31:43.698Z,17.67
2019-01-21T03:34:34.572Z,23.80
2019-01-21T03:37:43.358Z,18.37
2019-01-21T03:40:40.891Z,18.73
2019-01-21T03:44:04.606Z,20.30
2019-01-21T03:47:11.244Z,18.90
2019-01-21T03:50:03.715Z,15.63
2019-01-21T03:52:44.526Z,19.17
2019-01-21T03:55:15.890Z,17.73
2019-01-21T03:58:37.022Z,22.30
2019-01-21T04:01:19.144Z,15.80
2019-01-21T04:04:10.196Z,18.27
2019-01-21T04:07:04.637Z,14.60
2019-01-21T04:10:11.909Z,17.53
2019-01-21T04:13:01.794Z,19.50
2019-01-21T04:16:16.360Z,17.03
2019-01-21T04:19:30.079Z,16.77
2019-01-21T04:22:36.563Z,15.13
2019-01-21T04:25:32.084Z,19.50
2019-01-21T04:28:22.303Z,17.70
2019-01-21T04:31:22.931Z,18.23
2019-01-21T04:34:05.803Z,19.33
2019-01-21T04:37:27.817Z,15.63
2019-01-21T04:40:14.162Z,17.10
2019-01-21T04:43:27.173Z,15.70
2019-01-21T04:46:29.796Z,17.10
2019-01-21T04:49:09.351Z,18.17
2019-01-21T04:52:06.046Z,21.10
2019-01-21T04:55:10.177Z,18.80
2019-01-21T04:58:02.049Z,17.83
2019-01-21T05:01:03.534Z,16.67
2019-01-21T05:04:12.133Z,16.67
2019-01-21T05:07:25.300Z,18.37
2019-01-21T05:10:21.977Z,17.50
2019-01-21T05:13:27.191Z,16.90
2019-01-21T05:16:41.220Z,18.57
2019-01-21T05:19:41.042Z,18.33
2019-01-21T05:25:07.998Z,17.27
2019-01-21T05:28:33.342Z,20.50
2019-01-21T05:31:35.455Z,17.33
2019-01-21T05:34:33.087Z,16.67
2019-01-21T05:37:35.481Z,14.77
2019-01-21T05:40:41.126Z,22.53
2019-01-21T05:43:46.957Z,17.57
2019-01-21T05:46:45.061Z,18.17
2019-01-21T05:50:04.070Z,20.23
2019-01-21T05:53:15.768Z,19.37
2019-01-21T05:56:40.938Z,17.80
2019-01-21T06:00:01.821Z,20.80
2019-01-21T06:03:09.545Z,15.73
2019-01-21T06:06:24.929Z,17.90
2019-01-21T06:09:29.690Z,19.77
2019-01-21T06:12:05.566Z,17.50
2019-01-21T06:15:18.666Z,21.37
2019-01-21T06:18:08.877Z,20.70
2019-01-21T06:21:13.468Z,18.23
2019-01-21T06:24:30.136Z,18.73
2019-01-21T06:27:39.222Z,18.27
2019-01-21T06:31:07.092Z,18.57
2019-01-21T06:34:04.481Z,19.67
2019-01-21T06:37:06.972Z,17.87
2019-01-21T06:40:27.543Z,19.67
2019-01-21T06:43:22.033Z,21.03
2019-01-21T06:46:50.296Z,18.00
2019-01-21T06:50:02.571Z,19.80
2019-01-21T06:52:59.119Z,19.47
2019-01-21T06:56:10.895Z,19.77
2019-01-21T06:59:35.800Z,19.53
2019-01-21T07:02:44.831Z,19.77
2019-01-21T07:05:54.856Z,17.67
2019-01-21T07:08:43.293Z,19.83
2019-01-21T07:11:40.870Z,18.30
2019-01-21T07:14:50.129Z,17.27
2019-01-21T07:18:10.765Z,20.37
2019-01-21T07:21:27.168Z,21.13
2019-01-21T07:24:21.904Z,21.63
2019-01-21T07:27:35.069Z,20.57
2019-01-21T07:30:45.477Z,17.20
2019-01-21T07:33:42.827Z,18.57
2019-01-21T07:36:31.641Z,18.53
2019-01-21T07:39:59.516Z,20.23
2019-01-21T07:42:58.547Z,19.03
2019-01-21T07:46:09.663Z,18.33
2019-01-21T07:49:26.783Z,16.40
2019-01-21T07:52:33.129Z,24.07
2019-01-21T07:55:10.631Z,20.77
2019-01-21T07:58:26.576Z,22.23
2019-01-21T08:01:21.438Z,18.50
2019-01-21T08:04:32.769Z,20.27
2019-01-21T08:07:29.222Z,18.57
2019-01-21T08:10:36.841Z,23.20
2019-01-21T08:13:41.465Z,20.33
2019-01-21T08:17:15.507Z,20.13
2019-01-21T08:20:17.884Z,18.13
2019-01-21T08:23:30.435Z,23.10
2019-01-21T08:26:23.368Z,22.67
2019-01-21T08:29:26.074Z,21.60
2019-01-21T08:32:02.536Z,22.40
2019-01-21T08:35:01.092Z,19.77
2019-01-21T08:38:10.484Z,22.80
2019-01-21T08:41:31.601Z,19.17
2019-01-21T08:44:39.852Z,19.27
2019-01-21T08:47:25.326Z,19.30
2019-01-21T08:50:19.969Z,20.60
2019-01-21T08:53:28.511Z,19.63
2019-01-21T08:56:44.403Z,17.90
2019-01-21T08:59:54.585Z,22.43
2019-01-21T09:03:03.108Z,19.43
2019-01-21T09:06:25.389Z,19.20
2019-01-21T09:09:21.102Z,18.53
2019-01-21T09:12:16.852Z,19.07
2019-01-21T09:15:18.998Z,17.47
2019-01-21T09:18:04.864Z,13.37
2019-01-21T09:21:08.017Z,13.80
2019-01-21T09:23:58.732Z,15.33
2019-01-21T09:26:50.595Z,13.77
2019-01-21T09:30:01.965Z,15.23
2019-01-21T09:33:09.141Z,13.43
2019-01-21T09:36:03.781Z,13.67
2019-01-21T09:39:27.837Z,15.57
2019-01-21T09:42:20.692Z,17.73
2019-01-21T09:45:26.249Z,13.30
2019-01-21T09:47:53.725Z,15.10
2019-01-21T09:50:22.850Z,13.40
2019-01-21T09:52:52.145Z,12.37
2019-01-21T09:55:23.237Z,12.70
2019-01-21T09:58:03.482Z,13.87
2019-01-21T10:00:32.701Z,13.07
2019-01-21T10:03:03.613Z,12.27
2019-01-21T10:05:33.852Z,13.27
2019-01-21T10:08:29.916Z,12.67
2019-01-21T10:11:38.649Z,15.50
2019-01-21T10:14:54.868Z,15.23
2019-01-21T10:17:46.973Z,12.77
2019-01-21T10:20:27.898Z,13.30
2019-01-21T10:23:52.981Z,12.67
2019-01-21T10:26:51.864Z,12.63
2019-01-21T10:29:46.900Z,12.63
2019-01-21T10:32:55.784Z,12.20
2019-01-21T10:36:03.895Z,13.53
2019-01-21T10:39:38.150Z,12.77
2019-01-21T10:42:32.193Z,13.30
2019-01-21T10:45:36.704Z,12.67
2019-01-21T10:48:24.424Z,12.47
2019-01-21T10:51:25.707Z,13.13
2019-01-21T10:54:28.190Z,12.53
2019-01-21T10:57:41.306Z,12.97
2019-01-21T11:00:55.865Z,15.93
2019-01-21T11:03:41.765Z,14.97
2019-01-21T11:06:49.047Z,15.30
2019-01-21T11:09:40.022Z,15.83
2019-01-21T11:12:56.300Z,16.37
2019-01-21T11:15:59.573Z,16.83
2019-01-21T11:19:04.380Z,16.40
2019-01-21T11:22:02.822Z,16.63
2019-01-21T11:24:57.917Z,15.93
2019-01-21T11:28:12.808Z,15.40
2019-01-21T11:31:11.837Z,15.57
2019-01-21T11:34:24.832Z,15.37
2019-01-21T11:37:33.721Z,15.00
2019-01-21T11:40:50.126Z,16.13
2019-01-21T11:43:49.930Z,15.33
2019-01-21T11:46:50.753Z,15.67
2019-01-21T11:49:53.635Z,16.67
2019-01-21T11:52:52.012Z,16.93
2019-01-21T11:55:50.193Z,16.20
2019-01-21T11:58:38.058Z,15.80
2019-01-21T12:01:17.032Z,14.73
2019-01-21T12:03:59.138Z,15.30
2019-01-21T12:06:36.908Z,16.10
2019-01-21T12:09:45.207Z,16.00
2019-01-21T12:12:55.239Z,16.93
2019-01-21T12:16:09.976Z,16.70
2019-01-21T12:19:07.960Z,14.77
2019-01-21T12:22:16.223Z,16.00
2019-01-21T12:24:54.425Z,15.30
2019-01-21T12:27:59.904Z,15.87
2019-01-21T12:30:55.754Z,15.93
2019-01-21T12:33:51.768Z,15.43
2019-01-21T12:36:41.463Z,15.17
2019-01-21T12:39:47.917Z,16.40
2019-01-21T12:42:50.607Z,16.07
2019-01-21T12:46:06.013Z,16.30
2019-01-21T12:49:21.880Z,15.90
2019-01-21T12:52:33.808Z,15.50
2019-01-21T12:55:40.454Z,16.33
2019-01-21T12:58:43.360Z,16.20
2019-01-21T13:02:17.180Z,14.87
2019-01-21T13:05:12.683Z,14.80
2019-01-21T13:07:55.267Z,14.43
2019-01-21T13:10:49.906Z,16.13
2019-01-21T13:14:02.064Z,16.50
2019-01-21T13:16:48.532Z,16.40
2019-01-21T13:20:00.664Z,13.70
2019-01-21T13:23:01.249Z,15.03
2019-01-21T13:26:05.864Z,14.93
2019-01-21T13:29:10.764Z,15.03
2019-01-21T13:32:26.334Z,16.37
2019-01-21T13:35:31.049Z,15.33
2019-01-21T13:38:26.717Z,15.27
2019-01-21T13:41:51.013Z,15.77
2019-01-21T13:44:51.707Z,16.13
2019-01-21T13:47:53.573Z,15.67
2019-01-21T13:50:58.633Z,17.40
2019-01-21T13:54:02.762Z,15.30
2019-01-21T13:57:12.907Z,15.63
2019-01-21T14:00:21.040Z,15.10
2019-01-21T14:03:09.155Z,16.83
2019-01-21T14:06:22.684Z,16.60
2019-01-21T14:09:35.613Z,16.20
2019-01-21T14:12:34.786Z,15.53
2019-01-21T14:15:41.616Z,15.87
2019-01-21T14:18:56.252Z,16.97
2019-01-21T14:22:06.584Z,15.60
2019-01-21T14:25:23.008Z,15.40
2019-01-21T14:28:28.608Z,14.20
2019-01-21T14:31:21.193Z,17.00
2019-01-21T14:34:39.501Z,16.13
2019-01-21T14:37:45.378Z,16.63
2019-01-21T14:40:26.536Z,16.97
2019-01-21T14:43:48.821Z,15.90
2019-01-21T14:46:38.733Z,19.33
2019-01-21T14:49:42.036Z,18.53
2019-01-21T14:52:47.015Z,16.77
2019-01-21T14:56:18.178Z,18.70
2019-01-21T14:59:18.455Z,19.63
2019-01-21T15:02:01.898Z,19.87
2019-01-21T15:05:22.751Z,18.93
2019-01-21T15:08:31.478Z,18.30
2019-01-21T15:11:27.984Z,17.37
2019-01-21T15:14:19.725Z,17.97
2019-01-21T15:17:02.241Z,19.47
2019-01-21T15:20:06.669Z,19.10
2019-01-21T15:23:00.669Z,20.57
2019-01-21T15:26:08.466Z,20.27
2019-01-21T15:29:02.153Z,24.10
2019-01-21T15:32:02.727Z,23.47
2019-01-21T15:35:33.968Z,22.27
2019-01-21T15:38:33.497Z,21.30
2019-01-21T15:41:31.501Z,25.50
2019-01-21T15:44:24.704Z,23.60
2019-01-21T15:47:35.975Z,24.20
2019-01-21T15:50:46.051Z,22.60
2019-01-21T15:53:40.136Z,24.43
2019-01-21T15:56:40.497Z,23.37
2019-01-21T15:59:39.241Z,24.47
2019-01-21T16:02:38.644Z,24.40
2019-01-21T16:05:19.528Z,25.33
2019-01-21T16:07:55.912Z,23.40
2019-01-21T16:10:50.836Z,25.87
2019-01-21T16:13:45.664Z,30.27
2019-01-21T16:16:33.489Z,27.57
2019-01-21T16:19:12.280Z,24.93
2019-01-21T16:22:12.992Z,24.70
2019-01-21T16:24:56.008Z,24.70
2019-01-21T16:27:54.076Z,27.93
2019-01-21T16:30:34.042Z,25.77
2019-01-21T16:33:43.392Z,24.50
2019-01-21T16:36:24.066Z,24.87
2019-01-21T16:39:03.180Z,22.53
2019-01-21T16:41:46.655Z,25.33
2019-01-21T16:44:15.744Z,21.57
2019-01-21T16:46:44.849Z,24.57
2019-01-21T16:49:13.949Z,23.10
2019-01-21T16:51:43.086Z,25.17
2019-01-21T16:54:12.847Z,67.63
2019-01-21T16:56:41.973Z,26.67
2019-01-21T16:59:11.058Z,22.67
2019-01-21T17:01:40.212Z,22.33
2019-01-21T17:04:09.248Z,22.20
2019-01-21T17:06:39.528Z,21.47
2019-01-21T17:09:11.013Z,22.63
2019-01-21T17:11:40.121Z,22.87
2019-01-21T17:14:11.421Z,20.07
2019-01-21T17:16:40.532Z,20.20
2019-01-21T17:19:09.692Z,21.37
2019-01-21T17:21:39.035Z,23.00
2019-01-21T17:24:08.131Z,23.37
2019-01-21T17:26:37.363Z,20.60
2019-01-21T17:29:06.455Z,21.17
2019-01-21T17:31:35.563Z,21.27
2019-01-21T17:34:05.162Z,19.47
2019-01-21T17:36:34.264Z,22.50
2019-01-21T17:39:04.201Z,18.57
2019-01-21T17:41:33.295Z,22.50
2019-01-21T17:44:02.416Z,25.40
2019-01-21T17:46:31.532Z,21.50
2019-01-21T17:49:00.621Z,18.00
2019-01-21T17:51:33.796Z,17.63
2019-01-21T17:54:00.682Z,18.97
2019-01-21T17:56:29.765Z,18.50
2019-01-21T17:58:58.877Z,15.87
2019-01-21T18:01:27.964Z,18.97
2019-01-21T18:03:57.082Z,18.50
2019-01-21T18:06:26.169Z,17.97
2019-01-21T18:08:55.289Z,18.93
2019-01-21T18:11:24.405Z,19.23
2019-01-21T18:13:53.505Z,22.93
2019-01-21T18:16:22.599Z,21.83
2019-01-21T18:18:51.708Z,23.37
2019-01-21T18:21:20.797Z,24.63
2019-01-21T18:23:49.922Z,20.67
2019-01-21T18:26:19.025Z,23.80
2019-01-21T18:28:48.129Z,28.73
2019-01-21T18:31:17.230Z,24.43
2019-01-21T18:33:46.346Z,23.17
2019-01-21T18:36:15.543Z,21.07
2019-01-21T18:38:44.734Z,21.23
2019-01-21T18:41:13.837Z,23.87
2019-01-21T18:43:43.065Z,23.50
2019-01-21T18:46:12.171Z,23.07
2019-01-21T18:48:41.281Z,23.77
2019-01-21T18:51:10.404Z,24.37
2019-01-21T18:53:39.521Z,20.40
2019-01-21T18:56:08.615Z,21.67
2019-01-21T18:58:37.740Z,20.93
2019-01-21T19:01:06.829Z,19.93
2019-01-21T19:03:35.935Z,22.40
2019-01-21T19:06:05.126Z,22.90
2019-01-21T19:08:34.237Z,23.37
2019-01-21T19:11:03.338Z,22.47
2019-01-21T19:13:32.420Z,20.63
2019-01-21T19:16:01.534Z,21.27
2019-01-21T19:18:30.624Z,21.03
2019-01-21T19:20:59.733Z,21.00
2019-01-21T19:23:28.837Z,22.57
2019-01-21T19:25:57.961Z,26.00
2019-01-21T19:28:27.048Z,25.53
2019-01-21T19:30:56.177Z,23.43
2019-01-21T19:33:25.267Z,20.23
2019-01-21T19:35:54.376Z,22.33
2019-01-21T19:38:23.461Z,21.03
2019-01-21T19:40:52.568Z,22.43
2019-01-21T19:43:21.653Z,20.83
2019-01-21T19:45:50.759Z,18.97
2019-01-21T19:48:19.848Z,23.50
2019-01-21T19:50:48.993Z,20.37
2019-01-21T19:53:18.078Z,23.30
2019-01-21T19:55:47.195Z,23.17
2019-01-21T19:58:17.183Z,23.47
2019-01-21T20:00:46.310Z,21.27
2019-01-21T20:03:15.413Z,22.87
2019-01-21T20:05:44.529Z,21.37
2019-01-21T20:08:13.618Z,25.70
2019-01-21T20:10:42.725Z,24.53
2019-01-21T20:13:11.816Z,22.53
2019-01-21T20:15:40.926Z,22.23
2019-01-21T20:18:10.008Z,22.63
2019-01-21T20:20:40.782Z,22.47
2019-01-21T20:23:09.922Z,22.87
2019-01-21T20:25:39.032Z,23.60
2019-01-21T20:28:08.155Z,24.63
2019-01-21T20:30:37.272Z,17.87
2019-01-21T20:33:06.468Z,24.40
2019-01-21T20:35:35.585Z,23.13
2019-01-21T20:38:04.777Z,21.37
2019-01-21T20:40:33.886Z,23.60
2019-01-21T20:43:02.980Z,23.00
2019-01-21T20:45:32.089Z,23.50
2019-01-21T20:48:01.177Z,21.97
2019-01-21T20:50:31.037Z,22.17
2019-01-21T20:53:00.136Z,20.17
2019-01-21T20:55:29.254Z,20.23
2019-01-21T20:57:58.338Z,21.57
2019-01-21T21:00:28.746Z,24.07
2019-01-21T21:02:58.424Z,23.83
2019-01-21T21:05:27.544Z,23.50
2019-01-21T21:07:56.658Z,21.03
2019-01-21T21:10:25.793Z,25.53
2019-01-21T21:12:54.895Z,20.53
2019-01-21T21:15:26.373Z,22.13
2019-01-21T21:17:55.492Z,19.83
2019-01-21T21:20:24.605Z,20.63
2019-01-21T21:22:53.692Z,24.77
2019-01-21T21:25:22.993Z,20.20
2019-01-21T21:27:52.101Z,23.03
2019-01-21T21:30:23.524Z,22.27
2019-01-21T21:32:52.679Z,25.90
2019-01-21T21:35:22.037Z,22.70
2019-01-21T21:37:51.146Z,21.70
2019-01-21T21:40:20.699Z,19.97
2019-01-21T21:42:49.804Z,19.60
2019-01-21T21:45:19.415Z,34.83
2019-01-21T21:47:48.561Z,22.07
2019-01-21T21:50:20.129Z,20.33
2019-01-21T21:52:49.268Z,23.17
2019-01-21T21:55:18.357Z,24.63
2019-01-21T21:57:47.478Z,22.63
2019-01-21T22:00:19.177Z,18.40
2019-01-21T22:02:48.288Z,20.53
2019-01-21T22:05:17.681Z,20.27
2019-01-21T22:07:46.790Z,21.20
2019-01-21T22:10:19.779Z,19.80
2019-01-21T22:12:48.181Z,24.03
2019-01-21T22:15:18.889Z,21.10
2019-01-21T22:17:48.006Z,20.77
2019-01-21T22:20:18.700Z,20.03
2019-01-21T22:22:47.821Z,19.80
2019-01-21T22:25:17.185Z,22.83
2019-01-21T22:27:46.296Z,22.53
2019-01-21T22:30:17.770Z,22.00
2019-01-21T22:32:46.891Z,20.30
2019-01-21T22:35:15.999Z,22.17
2019-01-21T22:37:45.390Z,19.97
2019-01-21T22:40:16.356Z,23.00
2019-01-21T22:42:45.484Z,21.83
2019-01-21T22:45:15.509Z,20.30
2019-01-21T22:47:44.654Z,20.33
2019-01-21T22:50:14.346Z,20.37
2019-01-21T22:52:43.481Z,20.87
2019-01-21T22:55:13.651Z,23.07
2019-01-21T22:57:42.764Z,20.83
2019-01-21T23:00:53.097Z,25.67
2019-01-21T23:03:22.353Z,24.30
2019-01-21T23:05:51.437Z,24.03
2019-01-21T23:08:20.918Z,23.80
2019-01-21T23:10:50.001Z,24.30
2019-01-21T23:13:19.109Z,24.17
2019-01-21T23:15:48.201Z,24.33
2019-01-21T23:18:17.307Z,23.97
2019-01-21T23:20:46.387Z,25.50
2019-01-21T23:23:15.528Z,24.47
2019-01-21T23:25:44.622Z,21.87
2019-01-21T23:28:13.726Z,23.40
2019-01-21T23:30:42.817Z,19.50
2019-01-21T23:33:11.920Z,19.10
2019-01-21T23:35:41.000Z,21.47
2019-01-21T23:38:10.113Z,22.10
2019-01-21T23:40:39.200Z,19.37
2019-01-21T23:43:08.311Z,22.17
2019-01-21T23:45:37.399Z,19.87
2019-01-21T23:48:06.680Z,22.90
2019-01-21T23:50:35.779Z,21.73
2019-01-21T23:53:05.301Z,21.23
2019-01-21T23:55:34.383Z,24.90
2019-01-21T23:58:03.484Z,20.10
